Time;durP1;ratioP1;P1;durP2;ratioP2;P2;SDS_P1;SDS_P2;PMS_P1;PMS_P2;Temp;Humidity;BMP_temperature;BMP_pressure;BME280_temperature;BME280_humidity;BME280_pressure;Samples;Min_cycle;Max_cycle;Signal;HPM_P1;HPM_P2
2024/01/08 00:01:16;;;;;;;0.00;0.00;;;;;;;-0.94;95.66;101820.53;4986017;28;20381;-80
2024/01/08 00:03:43;;;;;;;0.00;0.00;;;;;;;-1.08;95.28;101786.19;4991513;28;20018;-78
2024/01/08 00:06:11;;;;;;;0.10;0.10;;;;;;;-1.04;95.34;101795.63;4975249;28;20025;-78
2024/01/08 00:08:36;;;;;;;0.10;0.10;;;;;;;-1.19;96.11;101773.03;4980821;28;20100;-78
2024/01/08 00:11:02;;;;;;;0.00;0.00;;;;;;;-0.98;95.92;101813.81;4976390;28;20090;-78
2024/01/08 00:13:27;;;;;;;0.00;0.00;;;;;;;-0.84;95.88;101836.56;4974476;28;20026;-76
2024/01/08 00:15:53;;;;;;;0.10;0.10;;;;;;;-0.80;96.48;101823.69;4981833;28;20034;-79
2024/01/08 00:18:20;;;;;;;0.00;0.00;;;;;;;-0.68;96.43;101829.66;4975381;28;20018;-81
2024/01/08 00:20:46;;;;;;;0.10;0.10;;;;;;;-0.69;96.41;101828.78;4976679;28;20053;-78
2024/01/08 00:23:11;;;;;;;0.00;0.00;;;;;;;-0.71;96.88;101825.44;4966586;28;20054;-79
2024/01/08 00:25:36;;;;;;;0.10;0.10;;;;;;;-0.84;97.62;101788.22;4977990;28;20416;-79
2024/01/08 00:28:04;;;;;;;0.00;0.00;;;;;;;-0.82;97.41;101805.00;4986232;28;20113;-78
2024/01/08 00:30:29;;;;;;;0.00;0.00;;;;;;;-0.71;97.95;101823.56;4965814;28;20072;-77
2024/01/08 00:32:54;;;;;;;0.00;0.00;;;;;;;-0.68;97.90;101827.78;4979303;28;20014;-79
2024/01/08 00:35:20;;;;;;;0.10;0.10;;;;;;;-0.68;97.65;101825.09;4985369;28;20044;-80
2024/01/08 00:37:45;;;;;;;0.10;0.10;;;;;;;-0.73;97.90;101827.41;4962194;28;20597;-79
2024/01/08 00:40:11;;;;;;;0.10;0.10;;;;;;;-0.80;97.70;101827.22;4949528;28;20022;-80
2024/01/08 00:42:37;;;;;;;0.00;0.00;;;;;;;-0.76;97.83;101838.47;4952189;28;20026;-78
2024/01/08 00:45:06;;;;;;;0.00;0.00;;;;;;;-0.80;97.97;101843.31;4980877;28;20037;-80
2024/01/08 00:47:33;;;;;;;0.10;0.10;;;;;;;-0.81;97.60;101849.69;4991130;28;20029;-80
2024/01/08 00:49:58;;;;;;;0.10;0.10;;;;;;;-0.78;97.79;101861.97;4983146;28;20209;-79
2024/01/08 00:52:24;;;;;;;0.10;0.10;;;;;;;-0.91;98.25;101847.09;4964512;28;20481;-80
2024/01/08 00:54:49;;;;;;;0.10;0.10;;;;;;;-0.99;97.70;101851.53;4964309;28;20433;-80
2024/01/08 00:57:15;;;;;;;0.10;0.10;;;;;;;-1.12;97.67;101849.28;4992895;28;20061;-80
2024/01/08 00:59:40;;;;;;;0.10;0.10;;;;;;;-1.11;98.21;101845.56;4963557;28;20030;-79
2024/01/08 01:02:05;;;;;;;0.00;0.00;;;;;;;-1.03;98.04;101847.50;4964255;28;20364;-80
2024/01/08 01:04:31;;;;;;;0.10;0.10;;;;;;;-0.96;97.33;101854.78;4971654;28;20031;-79
2024/01/08 01:06:56;;;;;;;0.00;0.00;;;;;;;-1.03;97.41;101848.34;4963852;28;20061;-78
2024/01/08 01:09:22;;;;;;;0.00;0.00;;;;;;;-1.11;96.92;101845.56;4960362;28;20033;-79
2024/01/08 01:11:47;;;;;;;0.10;0.10;;;;;;;-1.20;97.28;101835.75;4979117;28;20680;-80
2024/01/08 01:14:13;;;;;;;0.00;0.00;;;;;;;-1.15;97.47;101838.84;4980444;28;20023;-80
2024/01/08 01:16:38;;;;;;;0.10;0.10;;;;;;;-1.05;97.91;101855.72;4965856;28;20030;-78
2024/01/08 01:19:06;;;;;;;0.00;0.00;;;;;;;-1.06;97.16;101854.03;4964342;28;20022;-79
2024/01/08 01:21:31;;;;;;;0.00;0.00;;;;;;;-0.95;96.58;101851.09;4964784;28;20169;-79
2024/01/08 01:23:57;;;;;;;0.10;0.10;;;;;;;-0.80;96.25;101854.06;4955024;28;20033;-78
2024/01/08 01:26:22;;;;;;;0.00;0.00;;;;;;;-0.62;96.00;101862.09;4977881;28;20031;-79
2024/01/08 01:28:48;;;;;;;0.10;0.10;;;;;;;-0.49;95.21;101856.31;4979012;28;20141;-80
2024/01/08 01:31:15;;;;;;;0.10;0.10;;;;;;;-0.49;94.73;101844.72;4969987;28;20046;-79
2024/01/08 01:33:42;;;;;;;0.00;0.00;;;;;;;-0.38;94.85;101860.56;4966021;28;20496;-78
2024/01/08 01:36:07;;;;;;;0.10;0.10;;;;;;;-0.29;94.63;101856.94;4991964;28;20027;-77
2024/01/08 01:38:35;;;;;;;0.10;0.10;;;;;;;-0.19;94.33;101867.56;4972015;28;20421;-79
2024/01/08 01:41:00;;;;;;;0.00;0.00;;;;;;;-0.23;93.90;101850.91;5004182;28;20033;-78
2024/01/08 01:43:30;;;;;;;0.00;0.00;;;;;;;-0.10;93.42;101863.94;4988073;28;20086;-79
2024/01/08 01:46:01;;;;;;;0.10;0.10;;;;;;;-0.05;92.90;101864.28;5005495;28;20100;-79
2024/01/08 01:48:27;;;;;;;0.10;0.10;;;;;;;-0.15;92.80;101838.53;5000576;28;20042;-76
2024/01/08 01:50:53;;;;;;;0.10;0.10;;;;;;;-0.03;92.43;101866.81;4987559;28;20041;-78
2024/01/08 01:53:19;;;;;;;0.10;0.10;;;;;;;-0.06;92.38;101869.81;4954008;28;20036;-76
2024/01/08 01:55:45;;;;;;;0.00;0.00;;;;;;;-0.04;92.61;101867.81;4971878;28;20097;-76
2024/01/08 01:58:13;;;;;;;0.10;0.10;;;;;;;-0.14;92.04;101859.88;4978384;28;20203;-76
2024/01/08 02:00:40;;;;;;;0.00;0.00;;;;;;;-0.23;92.25;101858.16;4986943;28;20033;-77
2024/01/08 02:03:06;;;;;;;0.10;0.10;;;;;;;-0.23;92.25;101856.28;4986732;28;20032;-78
2024/01/08 02:05:33;;;;;;;0.00;0.00;;;;;;;-0.28;91.53;101868.53;4961140;28;20108;-76
2024/01/08 02:07:58;;;;;;;0.00;0.00;;;;;;;-0.47;91.37;101864.19;5000891;28;20105;-79
2024/01/08 02:10:25;;;;;;;0.00;0.00;;;;;;;-0.65;91.95;101859.72;4963539;28;20053;-77
2024/01/08 02:12:51;;;;;;;0.10;0.10;;;;;;;-0.75;92.28;101857.13;4984224;28;20109;-77
2024/01/08 02:15:19;;;;;;;0.00;0.00;;;;;;;-0.74;92.95;101857.97;4963665;28;20073;-78
2024/01/08 02:17:45;;;;;;;0.00;0.00;;;;;;;-0.65;92.45;101866.94;4970216;28;20062;-78
2024/01/08 02:20:10;;;;;;;0.10;0.10;;;;;;;-0.59;92.50;101867.16;4975207;28;20030;-78
2024/01/08 02:22:40;;;;;;;0.10;0.10;;;;;;;-0.60;93.01;101870.84;4969816;28;20050;-79
2024/01/08 02:25:12;;;;;;;0.00;0.00;;;;;;;-0.68;92.59;101862.72;4986809;28;20030;-78
2024/01/08 02:27:37;;;;;;;0.00;0.00;;;;;;;-0.72;92.93;101866.72;4990798;28;20361;-78
2024/01/08 02:30:04;;;;;;;0.00;0.00;;;;;;;-0.82;92.10;101856.03;4956613;28;20109;-79
2024/01/08 02:32:30;;;;;;;0.10;0.10;;;;;;;-0.74;92.32;101869.56;4974090;28;20010;-79
2024/01/08 02:34:55;;;;;;;0.10;0.10;;;;;;;-0.74;92.58;101883.00;5007271;28;20073;-79
2024/01/08 02:37:20;;;;;;;0.00;0.00;;;;;;;-0.72;92.67;101880.16;4978808;28;20038;-79
2024/01/08 02:39:46;;;;;;;0.10;0.10;;;;;;;-0.77;92.10;101879.78;4961576;28;20094;-78
2024/01/08 02:42:13;;;;;;;0.00;0.00;;;;;;;-0.74;92.19;101882.16;4993451;28;20025;-76
2024/01/08 02:44:40;;;;;;;0.00;0.00;;;;;;;-0.85;91.73;101874.34;4971912;28;20026;-78
2024/01/08 02:47:05;;;;;;;0.00;0.00;;;;;;;-0.86;91.73;101864.56;4997792;28;20440;-77
2024/01/08 02:49:31;;;;;;;0.00;0.00;;;;;;;-0.85;91.78;101877.03;4978705;28;20026;-77
2024/01/08 02:51:56;;;;;;;0.10;0.10;;;;;;;-0.78;92.59;101884.28;4966823;28;20022;-78
2024/01/08 02:54:22;;;;;;;0.00;0.00;;;;;;;-0.76;92.20;101892.19;4988441;28;20032;-78
2024/01/08 02:56:47;;;;;;;0.10;0.10;;;;;;;-0.78;92.62;101886.16;4969255;28;20388;-77
2024/01/08 02:59:12;;;;;;;0.00;0.00;;;;;;;-0.78;91.73;101888.84;4990996;28;20037;-77
2024/01/08 03:01:40;;;;;;;0.00;0.00;;;;;;;-0.85;91.44;101893.13;4972989;28;20033;-77
2024/01/08 03:04:05;;;;;;;0.00;0.00;;;;;;;-1.12;91.62;101854.63;5000910;28;20041;-77
2024/01/08 03:06:31;;;;;;;0.10;0.10;;;;;;;-0.95;92.00;101886.00;4970400;28;20668;-78
2024/01/08 03:08:56;;;;;;;0.03;0.03;;;;;;;-0.86;91.77;101896.81;4986727;28;20026;-78
2024/01/08 03:11:22;;;;;;;0.00;0.00;;;;;;;-0.80;91.64;101888.16;4975413;28;20030;-77
2024/01/08 03:13:47;;;;;;;0.10;0.10;;;;;;;-0.65;91.30;101905.41;4979069;28;20030;-78
2024/01/08 03:16:15;;;;;;;0.10;0.10;;;;;;;-0.72;90.81;101882.84;4961258;28;20362;-77
2024/01/08 03:18:40;;;;;;;0.00;0.00;;;;;;;-0.68;90.29;101897.66;4959156;28;20030;-77
2024/01/08 03:21:06;;;;;;;0.00;0.00;;;;;;;-0.74;89.75;101904.47;4966102;28;20027;-77
2024/01/08 03:23:31;;;;;;;0.10;0.10;;;;;;;-0.84;90.58;101892.16;4983594;28;20038;-77
2024/01/08 03:25:56;;;;;;;0.00;0.00;;;;;;;-0.85;90.94;101893.13;4980428;28;20026;-77
2024/01/08 03:28:22;;;;;;;0.00;0.00;;;;;;;-0.65;90.84;101905.41;4979961;28;20473;-78
2024/01/08 03:30:47;;;;;;;0.10;0.10;;;;;;;-0.67;90.62;101891.28;4955381;28;20034;-78
2024/01/08 03:33:13;;;;;;;0.10;0.10;;;;;;;-0.52;89.88;101898.78;4965576;28;20025;-76
2024/01/08 03:35:38;;;;;;;0.00;0.00;;;;;;;-0.42;89.53;101905.75;4981155;28;20033;-77
2024/01/08 03:38:04;;;;;;;0.00;0.00;;;;;;;-0.44;89.43;101896.13;4969481;28;20134;-77
2024/01/08 03:40:29;;;;;;;0.00;0.00;;;;;;;-0.38;88.80;101900.88;4978233;28;20030;-79
2024/01/08 03:42:57;;;;;;;0.10;0.10;;;;;;;-0.34;89.13;101906.81;4994597;28;20120;-78
2024/01/08 03:45:22;;;;;;;0.10;0.10;;;;;;;-0.25;88.62;101916.59;4964079;28;20085;-78
2024/01/08 03:47:48;;;;;;;0.00;0.00;;;;;;;-0.22;88.28;101909.06;4972529;28;20038;-77
2024/01/08 03:50:13;;;;;;;0.10;0.10;;;;;;;-0.21;87.77;101918.81;4990814;28;20096;-78
2024/01/08 03:52:38;;;;;;;0.10;0.10;;;;;;;-0.28;88.28;101906.16;4965406;28;20125;-78
2024/01/08 03:55:06;;;;;;;0.00;0.00;;;;;;;-0.39;87.97;101889.28;4971593;28;20025;-78
2024/01/08 03:57:32;;;;;;;0.10;0.10;;;;;;;-0.10;87.66;101922.22;4981033;28;20055;-78
2024/01/08 03:59:57;;;;;;;0.10;0.10;;;;;;;-0.04;87.43;101924.31;4971189;28;20153;-77
2024/01/08 04:02:25;;;;;;;0.10;0.10;;;;;;;-0.01;87.41;101918.59;4980348;28;20660;-78
2024/01/08 04:04:50;;;;;;;0.00;0.00;;;;;;;-0.04;86.84;101911.69;4968138;28;20042;-79
2024/01/08 04:07:16;;;;;;;0.10;0.10;;;;;;;-0.03;86.99;101909.84;4996292;28;20031;-78
2024/01/08 04:09:41;;;;;;;0.10;0.10;;;;;;;-0.04;86.89;101921.63;4962342;28;20149;-77
2024/01/08 04:12:07;;;;;;;0.00;0.00;;;;;;;-0.17;86.70;101902.38;4978735;28;20026;-77
2024/01/08 04:14:32;;;;;;;0.10;0.10;;;;;;;-0.19;86.74;101911.44;4969613;28;20060;-79
2024/01/08 04:16:58;;;;;;;0.00;0.00;;;;;;;-0.27;86.40;101918.63;4959232;28;20038;-77
2024/01/08 04:19:23;;;;;;;0.10;0.10;;;;;;;-0.34;86.17;101906.81;4981444;28;20033;-79
2024/01/08 04:21:49;;;;;;;0.00;0.00;;;;;;;-0.45;86.70;101902.50;4996315;28;20049;-79
2024/01/08 04:24:14;;;;;;;0.00;0.00;;;;;;;-0.54;86.73;101913.22;4958946;28;20034;-77
2024/01/08 04:26:40;;;;;;;0.10;0.10;;;;;;;-0.64;86.82;101915.16;4987583;28;20025;-77
2024/01/08 04:29:05;;;;;;;0.10;0.10;;;;;;;-0.78;86.93;101910.31;4962936;28;20362;-78
2024/01/08 04:31:31;;;;;;;0.10;0.10;;;;;;;-0.84;87.31;101910.94;4984043;28;20061;-78
2024/01/08 04:33:56;;;;;;;0.00;0.00;;;;;;;-0.84;87.35;101917.16;5021817;28;20077;-78
2024/01/08 04:36:22;;;;;;;0.00;0.00;;;;;;;-0.90;86.80;101913.25;4983795;28;20105;-79
2024/01/08 04:38:47;;;;;;;0.10;0.10;;;;;;;-0.96;86.98;101907.66;4975130;28;20044;-78
2024/01/08 04:41:20;;;;;;;0.00;0.00;;;;;;;-1.03;86.75;101910.09;5000754;28;20085;-78
2024/01/08 04:43:46;;;;;;;0.10;0.10;;;;;;;-1.09;86.36;101899.97;4974560;28;20053;-78
2024/01/08 04:46:11;;;;;;;0.10;0.10;;;;;;;-1.07;86.51;101906.03;4975404;28;20065;-78
2024/01/08 04:48:37;;;;;;;0.10;0.10;;;;;;;-1.04;86.68;101905.72;4981513;28;20066;-77
2024/01/08 04:51:03;;;;;;;0.00;0.00;;;;;;;-1.06;86.66;101907.72;4985369;28;20097;-79
2024/01/08 04:53:32;;;;;;;0.10;0.10;;;;;;;-1.06;86.46;101896.97;4990955;28;20025;-77
2024/01/08 04:55:57;;;;;;;0.00;0.00;;;;;;;-0.96;86.75;101897.75;4977146;28;20025;-79
2024/01/08 04:58:23;;;;;;;0.00;0.00;;;;;;;-0.82;85.85;101898.19;4979633;28;20037;-78
2024/01/08 05:00:48;;;;;;;0.10;0.10;;;;;;;-0.72;86.14;101898.94;4996546;28;20017;-77
2024/01/08 05:03:14;;;;;;;0.10;0.10;;;;;;;-0.60;85.90;101899.53;4978883;28;20026;-75
2024/01/08 05:05:39;;;;;;;0.00;0.00;;;;;;;-0.56;85.48;101899.06;5005139;28;20024;-78
2024/01/08 05:08:05;;;;;;;0.00;0.00;;;;;;;-0.45;86.12;101911.44;4978094;28;21151;-78
2024/01/08 05:10:30;;;;;;;0.10;0.10;;;;;;;-0.58;86.16;101868.00;4977913;28;20034;-77
2024/01/08 05:12:56;;;;;;;0.00;0.00;;;;;;;-0.35;85.70;101900.59;4991849;28;20030;-77
2024/01/08 05:15:23;;;;;;;0.10;0.10;;;;;;;-0.29;85.73;101915.22;4968904;28;20050;-77
2024/01/08 05:17:49;;;;;;;0.10;0.10;;;;;;;-0.37;85.57;101913.31;4977459;28;20037;-79
2024/01/08 05:20:14;;;;;;;0.00;0.00;;;;;;;-0.64;86.00;101900.84;4971774;28;20175;-78
2024/01/08 05:22:39;;;;;;;0.10;0.10;;;;;;;-0.80;86.67;101901.59;4971093;28;20042;-78
2024/01/08 05:25:05;;;;;;;0.10;0.10;;;;;;;-0.91;87.48;101906.16;4977370;28;20057;-79
2024/01/08 05:27:30;;;;;;;0.00;0.00;;;;;;;-1.05;86.88;101893.31;4963841;28;20030;-77
2024/01/08 05:29:56;;;;;;;0.00;0.00;;;;;;;-1.02;87.87;101908.25;4989491;28;20115;-78
2024/01/08 05:32:22;;;;;;;0.10;0.10;;;;;;;-1.16;88.25;101909.63;4971911;28;20057;-79
2024/01/08 05:34:47;;;;;;;0.00;0.00;;;;;;;-1.20;87.93;101905.56;4973795;28;20042;-78
2024/01/08 05:37:12;;;;;;;0.10;0.10;;;;;;;-1.21;88.30;101903.88;4971676;28;20030;-77
2024/01/08 05:39:38;;;;;;;0.00;0.00;;;;;;;-1.06;88.60;101913.09;4977488;28;20045;-78
2024/01/08 05:42:03;;;;;;;0.00;0.00;;;;;;;-0.97;87.92;101905.97;4988547;28;20030;-77
2024/01/08 05:44:29;;;;;;;0.10;0.10;;;;;;;-0.80;87.65;101912.34;4975131;28;20038;-78
2024/01/08 05:46:54;;;;;;;0.10;0.10;;;;;;;-0.68;87.38;101915.63;4956505;28;20030;-78
2024/01/08 05:49:20;;;;;;;0.10;0.10;;;;;;;-0.78;86.75;101904.94;4964899;28;20054;-76
2024/01/08 05:51:45;;;;;;;0.00;0.00;;;;;;;-0.85;86.69;101920.81;4966380;28;20102;-76
2024/01/08 05:54:11;;;;;;;0.10;0.10;;;;;;;-1.04;86.42;101911.09;4954902;28;20080;-76
2024/01/08 05:56:37;;;;;;;0.10;0.10;;;;;;;-1.06;87.09;101913.09;4968028;28;20069;-77
2024/01/08 05:59:03;;;;;;;0.10;0.10;;;;;;;-1.13;87.56;101907.47;4963159;28;20072;-77
2024/01/08 06:01:28;;;;;;;0.00;0.00;;;;;;;-1.09;86.73;101924.13;4965722;28;20147;-79
2024/01/08 06:03:54;;;;;;;0.10;0.10;;;;;;;-1.24;87.30;101900.50;4996215;28;20052;-77
2024/01/08 06:06:20;;;;;;;0.00;0.00;;;;;;;-1.12;87.89;101927.13;4974534;28;20113;-78
2024/01/08 06:08:46;;;;;;;0.10;0.10;;;;;;;-1.01;87.48;101926.88;4989691;28;20033;-77
2024/01/08 06:11:12;;;;;;;0.00;0.00;;;;;;;-0.92;87.01;101920.63;4990248;28;20042;-77
2024/01/08 06:13:37;;;;;;;0.10;0.10;;;;;;;-0.93;86.69;101910.88;4981558;28;20030;-78
2024/01/08 06:16:03;;;;;;;0.05;0.05;;;;;;;-0.84;87.04;101922.53;4975507;28;20022;-78
2024/01/08 06:18:31;;;;;;;0.10;0.10;;;;;;;-0.88;86.75;101911.25;4958275;28;20042;-78
2024/01/08 06:20:56;;;;;;;0.00;0.00;;;;;;;-0.79;86.30;101922.06;5000029;28;20030;-77
2024/01/08 06:23:22;;;;;;;0.00;0.00;;;;;;;-0.98;85.84;101902.44;4966496;28;20457;-78
2024/01/08 06:25:47;;;;;;;0.10;0.10;;;;;;;-1.06;86.17;101915.78;4977557;28;20121;-78
2024/01/08 06:28:13;;;;;;;0.10;0.10;;;;;;;-1.26;86.38;101902.47;4982937;28;20030;-77
2024/01/08 06:30:39;;;;;;;0.10;0.10;;;;;;;-1.35;86.52;101914.13;4980471;28;21203;-78
2024/01/08 06:33:05;;;;;;;0.00;0.00;;;;;;;-1.42;87.06;101908.53;4974616;28;20033;-76
2024/01/08 06:35:31;;;;;;;0.10;0.10;;;;;;;-1.47;87.02;101915.34;5008969;28;21109;-77
2024/01/08 06:37:56;;;;;;;0.00;0.00;;;;;;;-1.58;88.19;101901.13;5007624;28;20022;-77
2024/01/08 06:40:22;;;;;;;0.10;0.10;;;;;;;-1.51;88.00;101908.59;4961796;28;20033;-78
2024/01/08 06:42:47;;;;;;;0.10;0.10;;;;;;;-1.45;88.91;101913.34;4978959;28;20521;-77
2024/01/08 06:45:13;;;;;;;0.10;0.10;;;;;;;-1.63;88.08;101876.59;4980299;28;20037;-77
2024/01/08 06:47:39;;;;;;;0.00;0.00;;;;;;;-1.36;88.63;101911.59;4991982;28;21182;-78
2024/01/08 06:50:05;;;;;;;0.10;0.10;;;;;;;-1.28;88.05;101899.09;4960852;28;20048;-77
2024/01/08 06:52:30;;;;;;;0.10;0.10;;;;;;;-1.11;88.11;101905.50;4984007;28;20038;-77
2024/01/08 06:54:58;;;;;;;0.10;0.10;;;;;;;-1.11;87.54;101904.63;5008090;28;20029;-78
2024/01/08 06:57:24;;;;;;;0.00;0.00;;;;;;;-1.08;87.62;101932.03;4992258;28;20241;-77
2024/01/08 07:00:26;;;;;;;0.10;0.10;;;;;;;-1.13;88.03;101928.13;4962211;28;20030;-80
2024/01/08 07:02:54;;;;;;;0.10;0.10;;;;;;;-1.29;88.34;101902.78;4980205;28;20038;-78
2024/01/08 07:05:19;;;;;;;0.00;0.00;;;;;;;-1.37;88.01;101897.34;4980590;28;20106;-75
2024/01/08 07:07:45;;;;;;;0.10;0.10;;;;;;;-1.31;88.58;101922.75;4971698;28;20029;-74
2024/01/08 07:10:11;;;;;;;0.10;0.10;;;;;;;-1.41;88.61;101912.06;4993481;28;20037;-73
2024/01/08 07:12:37;;;;;;;0.00;0.00;;;;;;;-1.53;89.07;101905.19;5007978;28;20037;-73
2024/01/08 07:15:04;;;;;;;0.00;0.00;;;;;;;-1.62;89.13;101907.78;4972686;28;20026;-77
2024/01/08 07:17:32;;;;;;;0.10;0.10;;;;;;;-1.56;88.91;101911.72;4988689;28;20029;-74
2024/01/08 07:20:00;;;;;;;0.10;0.10;;;;;;;-1.68;88.98;101902.16;4981461;28;20385;-75
2024/01/08 07:22:25;;;;;;;0.10;0.10;;;;;;;-1.78;89.55;101880.78;5008494;28;20056;-75
2024/01/08 07:24:54;;;;;;;0.10;0.10;;;;;;;-1.69;89.49;101901.34;4986259;28;21025;-73
2024/01/08 07:27:20;;;;;;;0.10;0.10;;;;;;;-1.65;88.66;101900.03;4975687;28;20048;-73
2024/01/08 07:29:48;;;;;;;0.00;0.00;;;;;;;-1.49;89.88;101928.03;4980569;28;20037;-74
2024/01/08 07:32:14;;;;;;;0.00;0.00;;;;;;;-1.54;89.83;101927.66;4994608;28;20029;-73
2024/01/08 07:34:40;;;;;;;0.10;0.10;;;;;;;-1.44;89.78;101931.97;5008367;28;20033;-75
2024/01/08 07:37:05;;;;;;;0.00;0.00;;;;;;;-1.44;89.57;101923.91;4971701;28;20033;-74
2024/01/08 07:39:31;;;;;;;0.10;0.10;;;;;;;-1.44;89.31;101925.78;4959535;28;20022;-75
2024/01/08 07:41:56;;;;;;;0.10;0.10;;;;;;;-1.45;89.29;101929.44;4970335;28;20030;-74
2024/01/08 07:44:22;;;;;;;0.10;0.10;;;;;;;-1.50;89.83;101921.00;4992693;28;20032;-74
2024/01/08 07:46:47;;;;;;;0.10;0.10;;;;;;;-1.52;89.75;101915.81;4964381;28;20037;-75
2024/01/08 07:49:14;;;;;;;0.10;0.10;;;;;;;-1.66;90.21;101900.19;4978873;28;20034;-75
2024/01/08 07:51:40;;;;;;;0.00;0.00;;;;;;;-1.71;89.78;101899.78;4996477;28;20042;-75
2024/01/08 07:54:20;;;;;;;0.00;0.00;;;;;;;-1.64;89.69;101909.75;4994093;28;20073;-76
2024/01/08 07:56:47;;;;;;;0.00;0.00;;;;;;;-1.72;89.52;101907.00;4990607;28;20030;-76
2024/01/08 07:59:24;;;;;;;0.10;0.10;;;;;;;-1.69;89.88;101920.09;4974957;28;20032;-78
2024/01/08 08:02:04;;;;;;;0.10;0.10;;;;;;;-2.22;90.60;101840.31;4999834;28;20045;-76
2024/01/08 08:08:11;;;;;;;;;;;;;;;;;;;;;
2024/01/08 08:14:26;;;;;;;0.00;0.00;;;;;;;-1.84;92.06;101902.81;4977069;28;20084;-76
2024/01/08 08:17:02;;;;;;;;;;;;;;;;;;;;;
2024/01/08 08:19:28;;;;;;;0.00;0.00;;;;;;;-1.84;92.15;101892.06;5005418;28;20032;-76
2024/01/08 08:21:54;;;;;;;0.10;0.10;;;;;;;-1.87;92.26;101887.88;4966922;28;20839;-76
2024/01/08 08:24:26;;;;;;;0.10;0.10;;;;;;;-1.76;92.74;101902.91;4987287;28;20033;-76
2024/01/08 08:26:52;;;;;;;0.00;0.00;;;;;;;-1.83;93.11;101885.72;4981412;28;20141;-77
2024/01/08 08:29:17;;;;;;;0.00;0.00;;;;;;;-1.66;92.64;101906.41;4985209;28;20030;-75
2024/01/08 08:31:50;;;;;;;0.10;0.10;;;;;;;-1.55;92.77;101918.75;4988307;28;20040;-75
2024/01/08 08:34:15;;;;;;;0.10;0.10;;;;;;;-1.65;92.19;101897.38;4988481;28;20093;-75
2024/01/08 08:36:41;;;;;;;0.00;0.00;;;;;;;-1.53;92.84;101915.91;4965676;28;20022;-77
2024/01/08 08:39:07;;;;;;;0.10;0.10;;;;;;;-1.53;91.96;101899.81;4998097;28;20027;-77
2024/01/08 08:41:32;;;;;;;0.10;0.10;;;;;;;-1.53;92.01;101894.44;5015242;28;20025;-76
2024/01/08 08:44:08;;;;;;;0.00;0.00;;;;;;;-1.32;92.22;101924.56;4971021;28;20032;-76
2024/01/08 08:46:37;;;;;;;0.00;0.00;;;;;;;-1.29;92.01;101915.38;5005053;28;20108;-77
2024/01/08 08:49:02;;;;;;;0.10;0.10;;;;;;;-1.17;91.24;101924.03;4984113;28;20036;-75
2024/01/08 08:51:28;;;;;;;0.10;0.10;;;;;;;-1.16;90.98;101923.06;4995707;28;20117;-76
2024/01/08 08:54:03;;;;;;;0.10;0.10;;;;;;;-1.25;91.47;101904.16;4977648;28;20033;-77
2024/01/08 08:56:32;;;;;;;0.10;0.10;;;;;;;-1.25;90.72;101888.06;4990415;28;21456;-75
2024/01/08 08:59:13;;;;;;;0.00;0.00;;;;;;;-0.87;90.87;101944.31;4995120;28;20106;-77
2024/01/08 09:01:48;;;;;;;0.10;0.10;;;;;;;-1.09;89.80;101902.66;4988923;28;20041;-75
2024/01/08 09:04:24;;;;;;;0.10;0.10;;;;;;;-0.73;89.52;101951.84;4986222;28;20030;-77
2024/01/08 09:10:59;;;;;;;0.00;0.00;;;;;;;-0.81;88.03;101884.59;4975677;28;20523;-75
2024/01/08 09:13:57;;;;;;;;;;;;;;;;;;;;;
2024/01/08 09:16:26;;;;;;;0.10;0.10;;;;;;;-0.27;86.69;101951.72;4986772;28;20116;-74
2024/01/08 09:18:51;;;;;;;0.10;0.10;;;;;;;-0.20;85.73;101950.06;4994444;28;20065;-75
2024/01/08 09:21:19;;;;;;;0.00;0.00;;;;;;;-0.29;85.71;101921.47;4979246;28;20043;-77
2024/01/08 09:23:52;;;;;;;0.00;0.00;;;;;;;-0.12;85.09;101935.84;4977449;28;20037;-75
2024/01/08 09:26:20;;;;;;;0.10;0.10;;;;;;;0.00;84.08;101936.44;4982277;28;20034;-74
2024/01/08 09:28:46;;;;;;;0.10;0.10;;;;;;;0.24;83.01;101945.66;4977824;28;20029;-75
2024/01/08 09:31:25;;;;;;;0.00;0.00;;;;;;;0.31;82.75;101935.94;4976785;28;20121;-75
2024/01/08 09:33:51;;;;;;;0.00;0.00;;;;;;;0.43;81.73;101926.53;4985427;28;20437;-75
2024/01/08 09:36:16;;;;;;;0.00;0.00;;;;;;;0.50;80.76;101926.75;5010955;28;20460;-75
2024/01/08 09:38:42;;;;;;;0.03;0.03;;;;;;;0.74;80.64;101933.22;4970304;28;20058;-75
2024/01/08 09:41:12;;;;;;;0.10;0.10;;;;;;;0.81;79.47;101908.16;4973012;28;20117;-74
2024/01/08 09:43:39;;;;;;;0.10;0.10;;;;;;;1.07;78.97;101917.97;4967839;28;20550;-75
2024/01/08 09:46:18;;;;;;;0.10;0.10;;;;;;;1.49;77.88;101938.53;4992370;28;20037;-75
2024/01/08 09:48:47;;;;;;;0.10;0.10;;;;;;;1.80;75.43;101907.34;4992623;28;20042;-74
2024/01/08 09:51:12;;;;;;;0.10;0.10;;;;;;;2.19;73.34;101912.81;4971898;28;20040;-75
2024/01/08 09:53:38;;;;;;;0.00;0.00;;;;;;;2.48;71.05;101908.59;4996617;28;20034;-74
2024/01/08 09:56:28;;;;;;;0.00;0.00;;;;;;;2.88;70.16;101922.09;4976021;28;20027;-76
2024/01/08 09:59:13;;;;;;;0.10;0.10;;;;;;;3.28;69.26;101947.16;4984720;28;20080;-74
2024/01/08 10:01:57;;;;;;;;;;;;;;;;;;;;;
2024/01/08 10:07:43;;;;;;;0.00;0.00;;;;;;;3.09;65.74;101878.19;4985870;28;20479;-76
2024/01/08 10:13:05;;;;;;;0.00;0.00;;;;;;;3.07;65.56;101893.75;4993524;28;20426;-74
2024/01/08 10:15:34;;;;;;;0.00;0.00;;;;;;;3.16;66.13;101918.88;4988153;28;20069;-74
2024/01/08 10:18:19;;;;;;;0.10;0.10;;;;;;;3.01;65.71;101905.28;4979713;28;20025;-74
2024/01/08 10:21:09;;;;;;;0.00;0.00;;;;;;;3.02;65.27;101907.78;4986136;28;20045;-74
2024/01/08 10:23:43;;;;;;;0.00;0.00;;;;;;;2.92;65.21;101894.53;4981508;28;20058;-74
2024/01/08 10:51:41;;;;;;;;;;;;;;;;;;;;;
2024/01/08 11:04:20;;;;;;;0.10;0.10;;;;;;;3.50;64.07;101921.13;4763202;30;20059;-75
2024/01/08 11:06:48;;;;;;;0.00;0.00;;;;;;;3.26;64.72;101882.44;4765975;30;21699;-76
2024/01/08 11:10:19;;;;;;;0.00;0.00;;;;;;;3.71;63.57;101933.09;4817406;29;20047;-75
2024/01/08 11:16:44;;;;;;;0.00;0.00;;;;;;;3.44;62.82;101889.41;4804277;29;20106;-75
2024/01/08 11:23:41;;;;;;;0.00;0.00;;;;;;;3.47;62.46;101889.03;4950194;28;20060;-75
2024/01/08 11:26:26;;;;;;;0.00;0.00;;;;;;;3.35;62.95;101874.28;4981959;28;20065;-76
2024/01/08 11:29:04;;;;;;;;;;;;;;;3.63;62.15;101926.75;4988874;28;20497;-75
2024/01/08 11:35:14;;;;;;;0.10;0.10;;;;;;;3.71;63.33;101917.72;4956945;28;20543;-75
2024/01/08 11:37:45;;;;;;;0.00;0.00;;;;;;;3.72;62.93;101905.88;4960999;28;20581;-75
2024/01/08 11:40:16;;;;;;;0.00;0.00;;;;;;;3.45;62.94;101859.47;4992495;28;20034;-75
2024/01/08 11:43:37;;;;;;;0.00;0.00;;;;;;;3.74;63.12;101905.69;4991625;28;20113;-76
2024/01/08 11:46:44;;;;;;;;;;;;;;;;;;;;;
2024/01/08 11:56:07;;;;;;;;;;;;;;;;;;;;;
2024/01/08 11:58:56;;;;;;;0.00;0.00;;;;;;;3.74;62.90;101902.97;4979820;28;20111;-75
2024/01/08 12:01:22;;;;;;;0.00;0.00;;;;;;;3.85;63.08;101875.47;4969710;28;20053;-74
2024/01/08 12:08:12;;;;;;;0.00;0.00;;;;;;;4.00;61.38;101840.28;4991414;28;20034;-75
2024/01/08 12:10:40;;;;;;;0.00;0.00;;;;;;;4.19;61.35;101871.34;4968625;28;20025;-76
2024/01/08 12:13:46;;;;;;;;;;;;;;;;;;;;;
2024/01/08 12:16:18;;;;;;;0.00;0.00;;;;;;;3.88;61.77;101848.03;4992706;28;20380;-75
2024/01/08 12:19:04;;;;;;;0.00;0.00;;;;;;;4.15;62.46;101880.91;4982438;28;20030;-74
2024/01/08 12:21:42;;;;;;;;;;;;;;;;;;;;;
2024/01/08 12:24:08;;;;;;;0.10;0.10;;;;;;;3.97;62.45;101846.91;5000983;28;20022;-74
2024/01/08 12:26:53;;;;;;;0.00;0.00;;;;;;;4.19;61.98;101882.16;5004883;28;20010;-81
2024/01/08 12:29:22;;;;;;;0.00;0.00;;;;;;;3.95;61.37;101846.25;4973217;28;20121;-75
2024/01/08 12:32:08;;;;;;;;;;;;;;;;;;;;;
2024/01/08 12:34:43;;;;;;;0.00;0.00;;;;;;;4.09;61.64;101870.78;4994339;28;20022;-73
2024/01/08 12:37:12;;;;;;;;;;;;;;;4.02;61.60;101874.25;4996594;28;20327;-75
2024/01/08 12:39:38;;;;;;;0.00;0.00;;;;;;;3.89;62.44;101849.72;4996155;28;19967;-74
2024/01/08 12:45:51;;;;;;;0.00;0.00;;;;;;;3.62;62.38;101816.88;4934262;28;20061;-74
2024/01/08 12:49:06;;;;;;;;;;;;;;;;;;;;;
2024/01/08 12:51:32;;;;;;;0.10;0.10;;;;;;;3.88;62.71;101858.84;4975298;28;20043;-74
2024/01/08 12:53:57;;;;;;;0.00;0.00;;;;;;;3.70;63.20;101844.88;4987811;28;20335;-74
2024/01/08 12:56:23;;;;;;;0.10;0.10;;;;;;;3.64;62.39;101833.75;4976286;28;20072;-74
2024/01/08 12:58:48;;;;;;;0.00;0.00;;;;;;;3.75;63.71;101864.06;4997407;28;20373;-74
2024/01/08 13:01:15;;;;;;;0.00;0.00;;;;;;;3.69;63.57;101860.25;5003190;28;20038;-74
2024/01/08 13:03:40;;;;;;;0.00;0.00;;;;;;;3.62;63.30;101859.28;4947889;28;20089;-75
2024/01/08 13:06:07;;;;;;;0.10;0.10;;;;;;;3.62;64.03;101860.16;4970899;28;20481;-74
2024/01/08 13:08:36;;;;;;;0.00;0.00;;;;;;;3.54;64.29;101844.00;4991851;28;20700;-74